Time;durP1;ratioP1;P1;durP2;ratioP2;P2;SDS_P1;SDS_P2;PMS_P1;PMS_P2;Temp;Humidity;BMP_temperature;BMP_pressure;BME280_temperature;BME280_humidity;BME280_pressure;Samples;Min_cycle;Max_cycle;Signal;HPM_P1;HPM_P2
2021/08/21 00:03:50;;;;;;;12.97;11.67;;;19.70;99.90;;;;;;5052455;28;20462;-82
2021/08/21 00:07:04;;;;;;;9.60;8.27;;;16.80;99.90;;;;;;5058184;28;20480;-81
2021/08/21 00:09:49;;;;;;;9.30;7.93;;;16.80;99.90;;;;;;5052268;28;20512;-85
2021/08/21 00:12:39;;;;;;;10.73;9.73;;;16.60;99.90;;;;;;5059074;28;20465;-81
2021/08/21 00:15:23;;;;;;;10.87;7.70;;;16.80;99.90;;;;;;5059152;28;20460;-81
2021/08/21 00:18:11;;;;;;;8.80;8.00;;;19.40;99.90;;;;;;5058956;28;20453;-81
2021/08/21 00:20:47;;;;;;;9.07;8.03;;;16.80;99.90;;;;;;5058241;28;20497;-82
2021/08/21 00:23:22;;;;;;;8.20;7.20;;;16.70;99.90;;;;;;5057989;28;20464;-82
2021/08/21 00:25:52;;;;;;;10.40;9.37;;;;;;;;;;5057808;28;20454;-82
2021/08/21 00:28:34;;;;;;;10.50;9.40;;;16.80;99.90;;;;;;5062895;28;20460;-82
2021/08/21 00:31:13;;;;;;;9.67;8.73;;;16.80;99.90;;;;;;5068370;28;20473;-82
2021/08/21 00:33:54;;;;;;;9.53;8.40;;;16.80;99.90;;;;;;5058222;28;20442;-81
2021/08/21 00:36:35;;;;;;;9.50;8.60;;;16.80;99.90;;;;;;5058518;28;20453;-81
2021/08/21 00:39:14;;;;;;;9.53;7.90;;;16.80;99.90;;;;;;5060472;28;20466;-83
2021/08/21 00:41:48;;;;;;;11.97;9.17;;;;;;;;;;5061213;28;20533;-83
2021/08/21 00:44:48;;;;;;;10.63;9.27;;;16.80;99.90;;;;;;5061968;28;20449;-83
2021/08/21 00:47:27;;;;;;;10.60;9.10;;;16.80;99.90;;;;;;5061502;28;20801;-81
2021/08/21 00:49:58;;;;;;;10.93;8.60;;;16.80;99.90;;;;;;5062303;28;20470;-81
2021/08/21 00:52:38;;;;;;;9.17;8.27;;;16.90;99.90;;;;;;5061978;28;20454;-82
2021/08/21 00:55:30;;;;;;;11.83;8.43;;;17.30;99.90;;;;;;5062598;28;20449;-81
2021/08/21 00:57:57;;;;;;;11.17;9.17;;;;;;;;;;5062221;28;20438;-81
2021/08/21 01:00:31;;;;;;;11.80;9.90;;;16.90;99.90;;;;;;5061978;28;20462;-81
2021/08/21 01:03:28;;;;;;;12.00;8.97;;;16.80;99.90;;;;;;5059037;28;20453;-82
2021/08/21 01:06:14;;;;;;;10.80;8.27;;;16.90;99.90;;;;;;5063416;28;20452;-81
2021/08/21 01:08:42;;;;;;;8.70;7.90;;;;;;;;;;5071338;28;20477;-80
2021/08/21 01:11:35;;;;;;;9.83;8.87;;;16.80;99.90;;;;;;5070461;28;20482;-80
2021/08/21 01:14:02;;;;;;;9.23;8.27;;;;;;;;;;5071371;28;20430;-80
2021/08/21 01:16:33;;;;;;;9.37;8.43;;;16.80;99.90;;;;;;5060653;28;21002;-81
2021/08/21 01:19:22;;;;;;;9.00;8.20;;;16.80;99.90;;;;;;5059387;28;20433;-80
2021/08/21 01:22:11;;;;;;;10.30;9.30;;;16.70;99.90;;;;;;5058712;28;20832;-81
2021/08/21 01:24:45;;;;;;;10.17;8.50;;;;;;;;;;5060417;28;20431;-81
2021/08/21 01:27:38;;;;;;;9.53;8.37;;;16.80;99.90;;;;;;5064173;28;20454;-80
2021/08/21 01:30:20;;;;;;;9.83;8.83;;;16.90;99.90;;;;;;5070877;28;20497;-80
2021/08/21 01:32:53;;;;;;;9.27;8.33;;;16.90;99.90;;;;;;5065276;28;20447;-81
2021/08/21 01:35:41;;;;;;;9.33;8.43;;;16.90;99.90;;;;;;5065416;28;20472;-81
2021/08/21 01:38:38;;;;;;;9.23;8.43;;;16.80;99.90;;;;;;5068608;28;20536;-81
2021/08/21 01:41:15;;;;;;;10.20;8.70;;;19.40;99.90;;;;;;5074499;28;20462;-80
2021/08/21 01:43:58;;;;;;;9.97;8.97;;;16.80;99.90;;;;;;5074516;28;20438;-81
2021/08/21 01:46:41;;;;;;;9.77;8.60;;;16.80;99.90;;;;;;5068413;28;20469;-81
2021/08/21 01:49:12;;;;;;;8.33;7.60;;;16.80;99.90;;;;;;5065994;28;20508;-81
2021/08/21 01:51:43;;;;;;;10.70;9.07;;;18.80;99.90;;;;;;5062766;28;20999;-82
2021/08/21 01:54:19;;;;;;;12.63;8.87;;;17.00;99.90;;;;;;5060327;28;20453;-81
2021/08/21 01:56:55;;;;;;;9.67;8.67;;;16.80;99.90;;;;;;5060087;28;20434;-81
2021/08/21 02:02:31;;;;;;;8.90;8.07;;;16.90;99.90;;;;;;5056135;28;20454;-81
2021/08/21 02:05:06;;;;;;;10.27;8.13;;;;;;;;;;5062872;28;20437;-82
2021/08/21 02:07:56;;;;;;;9.33;8.50;;;16.90;99.90;;;;;;5059149;28;20436;-82
2021/08/21 02:10:42;;;;;;;8.97;8.07;;;16.90;99.90;;;;;;5066337;28;20797;-81
2021/08/21 02:13:14;;;;;;;9.97;9.03;;;16.90;99.90;;;;;;5076587;28;20438;-81
2021/08/21 02:15:53;;;;;;;9.13;8.23;;;17.70;99.90;;;;;;5077439;28;20429;-81
2021/08/21 02:18:27;;;;;;;9.67;8.70;;;;;;;;;;5076244;28;20486;-80
2021/08/21 02:20:54;;;;;;;10.93;9.10;;;;;;;;;;5077317;28;20470;-81
2021/08/21 02:23:26;;;;;;;9.40;8.20;;;16.90;99.90;;;;;;5073600;28;20449;-81
2021/08/21 02:25:57;;;;;;;8.07;7.27;;;16.90;99.90;;;;;;5076863;28;20433;-81
2021/08/21 02:28:48;;;;;;;10.50;8.37;;;16.80;99.90;;;;;;5077831;28;20480;-80
2021/08/21 02:31:25;;;;;;;8.10;7.27;;;16.80;99.90;;;;;;5077807;28;20462;-80
2021/08/21 02:34:04;;;;;;;8.97;8.13;;;18.90;99.90;;;;;;5075945;28;20419;-81
2021/08/21 02:39:22;;;;;;;9.00;8.10;;;;;;;;;;5027591;28;20525;-81
2021/08/21 02:41:52;;;;;;;9.23;8.20;;;;;;;;;;5075117;28;20482;-81
2021/08/21 02:44:28;;;;;;;9.70;8.70;;;;;;;;;;5071499;28;20894;-81
2021/08/21 02:47:15;;;;;;;10.20;8.40;;;16.80;99.90;;;;;;5069844;28;20434;-81
2021/08/21 02:49:53;;;;;;;12.77;9.20;;;16.40;99.90;;;;;;5061268;28;20508;-81
2021/08/21 02:52:37;;;;;;;12.00;8.90;;;16.80;99.90;;;;;;5057502;28;20492;-81
2021/08/21 02:55:42;;;;;;;8.57;7.80;;;16.70;99.90;;;;;;5057506;28;20450;-81
2021/08/21 02:58:18;;;;;;;10.00;9.00;;;;;;;;;;5056814;28;20449;-81
2021/08/21 03:01:01;;;;;;;8.77;7.97;;;16.70;99.90;;;;;;5055866;28;20485;-81
2021/08/21 03:03:44;;;;;;;8.23;7.43;;;16.70;99.90;;;;;;5057215;28;20430;-81
2021/08/21 03:06:11;;;;;;;9.20;8.30;;;;;;;;;;5057909;28;20503;-81
2021/08/21 03:08:57;;;;;;;9.90;8.90;;;16.50;99.90;;;;;;5057774;28;20520;-81
2021/08/21 03:11:34;;;;;;;10.07;9.17;;;16.60;99.90;;;;;;5056538;28;20465;-82
2021/08/21 03:14:03;;;;;;;10.73;9.60;;;16.60;99.90;;;;;;5056971;28;20474;-81
2021/08/21 03:16:30;;;;;;;12.03;10.07;;;;;;;;;;5057470;28;20443;-81
2021/08/21 03:22:10;;;;;;;10.07;9.10;;;16.60;99.90;;;;;;5056209;28;20973;-82
2021/08/21 03:24:45;;;;;;;9.57;8.57;;;17.60;99.90;;;;;;5057148;28;20492;-81
2021/08/21 03:27:29;;;;;;;17.47;9.80;;;18.90;99.90;;;;;;5057205;28;20849;-81
2021/08/21 03:32:46;;;;;;;9.90;8.90;;;;;;;;;;5055757;28;20967;-81
2021/08/21 03:35:37;;;;;;;9.30;8.40;;;16.30;99.90;;;;;;5056278;28;20452;-81
2021/08/21 03:38:26;;;;;;;11.60;9.33;;;16.50;99.90;;;;;;5056651;28;20498;-81
2021/08/21 03:41:01;;;;;;;10.13;9.00;;;;;;;;;;5055021;28;20458;-81
2021/08/21 03:43:29;;;;;;;9.37;8.47;;;16.00;99.90;;;;;;5056569;28;20430;-81
2021/08/21 03:46:11;;;;;;;11.20;10.00;;;16.00;99.90;;;;;;5057069;28;21037;-81
2021/08/21 03:48:53;;;;;;;14.27;10.10;;;15.30;99.90;;;;;;5057353;28;20603;-81
2021/08/21 03:51:28;;;;;;;11.17;10.10;;;15.90;99.90;;;;;;5056631;28;20497;-81
2021/08/21 03:53:59;;;;;;;10.37;9.30;;;;;;;;;;5059885;28;20564;-80
2021/08/21 03:59:23;;;;;;;10.53;9.43;;;15.90;99.90;;;;;;5052809;28;20446;-81
2021/08/21 04:02:02;;;;;;;11.47;10.37;;;15.30;99.90;;;;;;5056855;28;20442;-81
2021/08/21 04:04:56;;;;;;;10.90;9.80;;;15.50;99.90;;;;;;5056468;28;20429;-81
2021/08/21 04:10:25;;;;;;;12.10;9.60;;;15.80;99.90;;;;;;5107631;22;20967;-83
2021/08/21 04:12:55;;;;;;;10.53;9.43;;;15.90;99.90;;;;;;5042807;28;20431;-83
2021/08/21 04:15:35;;;;;;;10.70;9.70;;;15.80;99.90;;;;;;5042589;28;20458;-83
2021/08/21 04:18:05;;;;;;;11.43;10.23;;;;;;;;;;5042641;28;20454;-83
2021/08/21 04:20:40;;;;;;;10.57;9.30;;;15.80;99.90;;;;;;5047742;28;20872;-85
2021/08/21 04:23:10;;;;;;;10.90;9.93;;;15.90;99.90;;;;;;5067691;28;20426;-84
2021/08/21 04:25:45;;;;;;;10.83;9.73;;;15.90;99.90;;;;;;5082188;28;20480;-82
2021/08/21 04:28:12;;;;;;;13.43;9.67;;;;;;;;;;5062709;28;20430;-84
2021/08/21 04:30:49;;;;;;;11.23;10.00;;;16.00;99.90;;;;;;5060119;28;20851;-83
2021/08/21 04:33:16;;;;;;;11.17;10.17;;;;;;;;;;5060747;28;20445;-83
2021/08/21 04:35:45;;;;;;;11.40;9.77;;;16.00;99.90;;;;;;5059687;28;20442;-83
2021/08/21 04:38:20;;;;;;;13.23;11.60;;;15.80;99.90;;;;;;5060193;28;20526;-84
2021/08/21 04:40:49;;;;;;;11.70;10.40;;;;;;;;;;5059901;28;20476;-83
2021/08/21 04:43:16;;;;;;;11.37;10.07;;;;;;;;;;5060338;28;20533;-84
2021/08/21 04:45:44;;;;;;;11.47;10.30;;;;;;;;;;5060861;28;20503;-83
2021/08/21 04:48:16;;;;;;;28.77;22.80;;;16.10;99.90;;;;;;5060546;28;20484;-83
2021/08/21 04:50:43;;;;;;;36.53;27.60;;;;;;;;;;5060997;28;20486;-84
2021/08/21 04:53:10;;;;;;;44.33;31.27;;;;;;;;;;5060143;28;20445;-84
2021/08/21 04:55:39;;;;;;;27.37;21.57;;;16.10;99.90;;;;;;5060857;28;21045;-82
2021/08/21 04:58:06;;;;;;;35.67;26.80;;;;;;;;;;5072193;28;20537;-82
2021/08/21 05:00:34;;;;;;;22.87;19.03;;;16.30;99.90;;;;;;5072622;28;20462;-82
2021/08/21 05:03:04;;;;;;;21.57;19.27;;;16.40;99.90;;;;;;5062058;28;20450;-84
2021/08/21 05:05:37;;;;;;;21.00;17.60;;;;;;;;;;5061867;28;20450;-84
2021/08/21 05:08:06;;;;;;;18.33;14.20;;;16.40;99.90;;;;;;5062551;28;20462;-84
2021/08/21 05:10:36;;;;;;;13.10;11.40;;;;;;;;;;5064535;28;20485;-84
2021/08/21 05:13:04;;;;;;;14.77;11.43;;;16.50;99.90;;;;;;5058872;28;20457;-83
2021/08/21 05:15:33;;;;;;;13.10;11.70;;;16.50;99.90;;;;;;5058975;28;20495;-83
2021/08/21 05:18:00;;;;;;;11.97;10.70;;;16.60;99.90;;;;;;5065520;28;20438;-83
2021/08/21 05:20:29;;;;;;;11.97;10.77;;;16.60;99.90;;;;;;5066320;28;20466;-84
2021/08/21 05:23:06;;;;;;;14.50;11.90;;;16.60;99.90;;;;;;5060437;28;20454;-83
2021/08/21 05:25:38;;;;;;;12.73;11.30;;;16.50;99.90;;;;;;5067523;28;20461;-84
2021/08/21 05:28:06;;;;;;;11.83;10.60;;;16.60;99.90;;;;;;5061904;28;20427;-84
2021/08/21 05:30:33;;;;;;;11.90;10.43;;;16.60;99.90;;;;;;5061205;28;20555;-84
2021/08/21 05:33:00;;;;;;;12.30;11.10;;;16.60;99.90;;;;;;5060665;28;20446;-84
2021/08/21 05:35:27;;;;;;;11.20;10.10;;;16.40;99.90;;;;;;5060299;28;20860;-84
2021/08/21 05:37:53;;;;;;;13.37;11.10;;;16.60;99.90;;;;;;5072053;28;20452;-83
2021/08/21 05:40:22;;;;;;;12.20;11.00;;;16.60;99.90;;;;;;5080705;28;20462;-84
2021/08/21 05:42:49;;;;;;;13.17;10.97;;;16.60;99.90;;;;;;5071506;28;20492;-84
2021/08/21 05:45:17;;;;;;;15.00;11.10;;;16.60;99.90;;;;;;5066942;28;20457;-84
2021/08/21 05:47:45;;;;;;;14.07;10.73;;;16.60;99.90;;;;;;5062652;28;20445;-84
2021/08/21 05:50:12;;;;;;;12.83;11.57;;;16.50;99.90;;;;;;5065320;28;20481;-84
2021/08/21 05:52:39;;;;;;;15.70;11.50;;;16.70;99.90;;;;;;5069120;28;20529;-83
2021/08/21 05:55:09;;;;;;;11.50;10.30;;;16.80;99.90;;;;;;5064431;28;20495;-83
2021/08/21 05:57:36;;;;;;;14.10;11.03;;;16.80;99.90;;;;;;5062558;28;20477;-84
2021/08/21 06:00:04;;;;;;;13.23;11.80;;;16.80;99.90;;;;;;5061505;28;20454;-84
2021/08/21 06:02:32;;;;;;;13.20;11.80;;;16.90;99.90;;;;;;5060443;28;20464;-84
2021/08/21 06:05:00;;;;;;;13.70;11.17;;;16.90;99.90;;;;;;5063044;28;20456;-83
2021/08/21 06:07:27;;;;;;;14.50;12.13;;;17.00;99.90;;;;;;5065213;28;20446;-83
2021/08/21 06:09:56;;;;;;;14.00;12.40;;;17.10;99.90;;;;;;5062322;28;20522;-83
2021/08/21 06:12:24;;;;;;;13.00;11.70;;;17.00;99.90;;;;;;5062846;28;20497;-84
2021/08/21 06:14:53;;;;;;;13.00;11.67;;;17.10;99.90;;;;;;5060572;28;20489;-84
2021/08/21 06:17:20;;;;;;;13.63;11.90;;;17.00;99.90;;;;;;5061497;28;20439;-84
2021/08/21 06:19:48;;;;;;;14.30;11.80;;;17.10;99.90;;;;;;5060121;28;20477;-83
2021/08/21 06:22:15;;;;;;;14.37;11.20;;;17.10;99.90;;;;;;5059338;28;20450;-83
2021/08/21 06:24:45;;;;;;;12.70;10.60;;;17.20;99.90;;;;;;5059800;28;20454;-83
2021/08/21 06:27:12;;;;;;;13.77;12.03;;;17.20;99.90;;;;;;5060155;28;20457;-83
2021/08/21 06:29:41;;;;;;;12.27;11.07;;;17.20;99.90;;;;;;5058503;28;20450;-83
2021/08/21 06:32:09;;;;;;;11.40;9.93;;;17.30;99.90;;;;;;5060272;28;20820;-84
2021/08/21 06:34:38;;;;;;;13.27;11.77;;;17.40;99.90;;;;;;5060706;28;20430;-83
2021/08/21 06:37:07;;;;;;;15.13;11.23;;;17.50;99.90;;;;;;5070725;28;20536;-83
2021/08/21 06:39:34;;;;;;;18.20;13.07;;;17.50;99.90;;;;;;5061458;28;20484;-82
2021/08/21 06:42:01;;;;;;;17.53;15.73;;;17.50;99.90;;;;;;5067205;28;20910;-82
2021/08/21 06:44:31;;;;;;;15.80;12.43;;;17.60;99.90;;;;;;5067584;28;20446;-82
2021/08/21 06:47:01;;;;;;;13.53;11.40;;;17.70;99.90;;;;;;5067440;28;20452;-82
2021/08/21 06:49:28;;;;;;;13.40;10.80;;;17.80;99.90;;;;;;5067468;28;20454;-82
2021/08/21 06:51:54;;;;;;;14.47;10.77;;;17.60;99.90;;;;;;5067389;28;20546;-82
2021/08/21 06:54:25;;;;;;;12.30;10.90;;;17.70;99.90;;;;;;5065607;28;20488;-82
2021/08/21 06:56:52;;;;;;;16.53;11.37;;;18.20;99.90;;;;;;5066654;28;20913;-82
2021/08/21 06:59:19;;;;;;;12.73;11.43;;;17.80;99.90;;;;;;5066683;28;20438;-83
2021/08/21 07:01:46;;;;;;;16.37;12.17;;;17.80;99.90;;;;;;5065550;28;20462;-83
2021/08/21 07:04:13;;;;;;;12.83;11.47;;;17.90;99.90;;;;;;5064367;28;20450;-83
2021/08/21 07:06:44;;;;;;;14.70;12.67;;;17.90;99.90;;;;;;5064622;28;20537;-83
2021/08/21 07:09:13;;;;;;;13.70;11.30;;;18.00;99.90;;;;;;5063133;28;20556;-84
2021/08/21 07:11:41;;;;;;;16.50;10.83;;;18.00;99.90;;;;;;5061573;28;20496;-84
2021/08/21 07:14:08;;;;;;;12.70;10.23;;;18.10;99.90;;;;;;5065656;28;20450;-82
2021/08/21 07:16:35;;;;;;;12.97;10.37;;;18.20;99.90;;;;;;5061160;28;20458;-84
2021/08/21 07:19:02;;;;;;;9.40;8.50;;;18.30;99.90;;;;;;5064563;28;20430;-84
2021/08/21 07:21:28;;;;;;;15.00;10.50;;;18.30;99.90;;;;;;5060430;28;20466;-84
2021/08/21 07:23:55;;;;;;;8.83;7.67;;;18.50;99.90;;;;;;5060313;28;20458;-83
2021/08/21 07:26:22;;;;;;;10.27;6.80;;;18.50;99.90;;;;;;5059775;28;20568;-84
2021/08/21 07:28:52;;;;;;;8.37;7.40;;;18.50;99.90;;;;;;5061814;28;20525;-85
2021/08/21 07:31:19;;;;;;;12.77;7.53;;;18.60;99.90;;;;;;5058889;28;20528;-84
2021/08/21 07:33:49;;;;;;;8.50;7.20;;;18.70;99.90;;;;;;5059414;28;20450;-84
2021/08/21 07:36:15;;;;;;;8.93;8.03;;;18.80;99.90;;;;;;5061560;28;20450;-84
2021/08/21 07:38:43;;;;;;;10.60;8.50;;;18.90;99.90;;;;;;5069119;28;20834;-84
2021/08/21 07:41:14;;;;;;;10.90;9.07;;;18.90;99.90;;;;;;5069344;28;20461;-82
2021/08/21 07:43:41;;;;;;;12.10;8.47;;;18.80;99.90;;;;;;5069974;28;20443;-83
2021/08/21 07:46:08;;;;;;;13.60;9.70;;;18.60;99.90;;;;;;5066985;28;20446;-83
2021/08/21 07:48:38;;;;;;;11.10;8.43;;;18.60;99.90;;;;;;5066542;28;20449;-84
2021/08/21 07:51:06;;;;;;;8.47;7.00;;;18.60;99.90;;;;;;5069176;28;20782;-84
2021/08/21 07:53:33;;;;;;;8.83;7.60;;;18.60;99.90;;;;;;5069786;28;20453;-84
2021/08/21 07:56:00;;;;;;;9.90;7.87;;;18.60;99.90;;;;;;5060680;28;20462;-84
2021/08/21 07:58:27;;;;;;;10.53;8.37;;;18.60;99.90;;;;;;5059795;28;20466;-84
2021/08/21 08:00:54;;;;;;;10.23;9.10;;;18.70;99.90;;;;;;5064209;28;20473;-84
2021/08/21 08:03:22;;;;;;;10.13;7.93;;;18.80;99.90;;;;;;5059833;28;20477;-84
2021/08/21 08:05:49;;;;;;;10.30;8.60;;;18.70;99.90;;;;;;5059349;28;20454;-84
2021/08/21 08:08:16;;;;;;;11.83;8.20;;;18.90;99.90;;;;;;5068132;28;20446;-82
2021/08/21 08:10:43;;;;;;;6.97;6.33;;;18.70;99.90;;;;;;5073240;28;20492;-81
2021/08/21 08:13:10;;;;;;;10.93;7.30;;;18.80;99.90;;;;;;5070408;28;20440;-84
2021/08/21 08:15:36;;;;;;;8.03;7.13;;;19.00;99.90;;;;;;5067011;28;20507;-83
2021/08/21 08:18:04;;;;;;;11.03;8.67;;;19.10;99.90;;;;;;5070249;28;20827;-83
2021/08/21 08:20:32;;;;;;;8.10;6.37;;;19.10;99.90;;;;;;5064800;28;20472;-86
2021/08/21 08:22:58;;;;;;;10.43;7.87;;;19.20;99.90;;;;;;5060855;28;20434;-85
2021/08/21 08:25:25;;;;;;;8.90;6.93;;;19.30;99.90;;;;;;5060182;28;20442;-83
2021/08/21 08:27:52;;;;;;;9.23;8.33;;;19.30;99.90;;;;;;5059231;28;20872;-84
2021/08/21 08:30:18;;;;;;;9.67;7.23;;;19.40;99.90;;;;;;5058661;28;20895;-84
2021/08/21 08:32:45;;;;;;;7.37;6.23;;;19.40;99.90;;;;;;5059166;28;20485;-83
2021/08/21 08:35:12;;;;;;;8.30;7.17;;;19.30;99.90;;;;;;5058520;28;20496;-82
2021/08/21 08:37:41;;;;;;;8.17;7.30;;;19.40;99.90;;;;;;5057944;28;20450;-82
2021/08/21 08:40:10;;;;;;;7.70;7.00;;;19.60;99.90;;;;;;5065439;28;20442;-83
2021/08/21 08:42:40;;;;;;;11.03;8.30;;;19.50;99.90;;;;;;5076585;28;20464;-81
2021/08/21 08:45:08;;;;;;;7.90;7.20;;;19.50;99.90;;;;;;5071335;28;20430;-83
2021/08/21 08:47:36;;;;;;;8.00;6.60;;;19.50;99.90;;;;;;5064714;28;20454;-83
2021/08/21 08:50:04;;;;;;;8.23;7.40;;;19.60;99.90;;;;;;5063422;28;20867;-83
2021/08/21 08:52:32;;;;;;;6.10;5.50;;;19.70;99.90;;;;;;5063281;28;20484;-85
2021/08/21 08:55:00;;;;;;;11.20;7.80;;;19.80;99.90;;;;;;5061898;28;20450;-82
2021/08/21 08:57:37;;;;;;;7.63;5.80;;;19.80;99.90;;;;;;5061466;28;20449;-84
2021/08/21 09:00:07;;;;;;;19.30;9.43;;;19.80;99.90;;;;;;5063667;28;20430;-83
2021/08/21 09:02:35;;;;;;;9.37;7.93;;;19.80;99.90;;;;;;5063624;28;20450;-83
2021/08/21 09:05:04;;;;;;;7.77;6.83;;;19.90;99.90;;;;;;5062036;28;20446;-83
2021/08/21 09:07:43;;;;;;;8.87;6.83;;;20.00;99.90;;;;;;5067707;28;20442;-84
2021/08/21 09:10:13;;;;;;;8.80;7.97;;;20.00;99.90;;;;;;5072576;28;20442;-83
2021/08/21 09:12:39;;;;;;;7.30;6.60;;;20.00;99.90;;;;;;5061698;28;20485;-83
2021/08/21 09:15:22;;;;;;;6.30;5.70;;;20.10;99.90;;;;;;5062304;28;20452;-84
2021/08/21 09:18:07;;;;;;;5.67;5.07;;;20.00;99.90;;;;;;5062972;28;20851;-84
2021/08/21 09:20:35;;;;;;;8.33;6.63;;;20.10;99.90;;;;;;5061825;28;20474;-84
2021/08/21 09:23:25;;;;;;;8.53;6.60;;;20.00;99.90;;;;;;5070896;28;20449;-81
2021/08/21 09:25:56;;;;;;;8.67;7.77;;;20.10;99.90;;;;;;5059573;28;20451;-82
2021/08/21 09:28:24;;;;;;;6.87;6.27;;;20.20;99.90;;;;;;5070076;28;20457;-82
2021/08/21 09:31:02;;;;;;;7.20;6.50;;;20.10;99.90;;;;;;5061768;28;20474;-82
2021/08/21 09:33:31;;;;;;;6.43;5.80;;;20.10;99.90;;;;;;5060014;28;20439;-83
2021/08/21 09:35:59;;;;;;;5.63;5.13;;;20.10;99.90;;;;;;5061234;28;20521;-83
2021/08/21 09:38:29;;;;;;;6.30;5.10;;;20.40;99.90;;;;;;5063487;28;20521;-84
2021/08/21 09:44:56;;;;;;;7.10;5.97;;;20.50;99.90;;;;;;5035160;28;20458;-83
2021/08/21 09:50:29;;;;;;;6.07;5.57;;;20.70;99.90;;;;;;5029313;28;20431;-84
2021/08/21 09:56:32;;;;;;;4.47;4.00;;;20.80;99.90;;;;;;5066617;22;20495;-80
2021/08/21 09:58:59;;;;;;;4.20;3.90;;;20.70;99.90;;;;;;5040843;28;20825;-80
2021/08/21 10:01:27;;;;;;;6.90;4.43;;;20.90;99.90;;;;;;5040733;28;20444;-79
2021/08/21 10:03:54;;;;;;;6.47;4.47;;;20.80;99.90;;;;;;5040376;28;20453;-80
2021/08/21 10:06:21;;;;;;;9.83;7.17;;;20.90;99.90;;;;;;5053770;28;20488;-79
2021/08/21 10:08:50;;;;;;;8.37;6.73;;;21.00;99.90;;;;;;5060709;28;20438;-80
2021/08/21 10:11:17;;;;;;;6.97;5.93;;;21.20;99.90;;;;;;5060936;28;20446;-80
2021/08/21 10:13:45;;;;;;;6.17;5.57;;;21.10;99.90;;;;;;5062235;28;20484;-79
2021/08/21 10:16:14;;;;;;;5.50;5.00;;;21.20;99.90;;;;;;5060795;28;20509;-79
2021/08/21 10:18:42;;;;;;;5.37;4.90;;;21.20;99.90;;;;;;5060545;28;20469;-80
2021/08/21 10:21:09;;;;;;;5.70;4.93;;;21.10;99.90;;;;;;5061319;28;20446;-80
2021/08/21 10:23:41;;;;;;;6.40;5.37;;;21.00;99.90;;;;;;5059760;28;20441;-80
2021/08/21 10:26:14;;;;;;;6.70;5.20;;;21.00;99.90;;;;;;5059874;28;20465;-80
2021/08/21 10:28:41;;;;;;;6.27;5.67;;;21.10;99.90;;;;;;5060072;28;20435;-80
2021/08/21 10:31:29;;;;;;;5.30;4.80;;;21.10;99.90;;;;;;5059863;28;20447;-80
2021/08/21 10:33:57;;;;;;;7.37;6.67;;;21.10;99.90;;;;;;5059256;28;20446;-79
2021/08/21 10:36:42;;;;;;;6.00;5.40;;;21.20;99.90;;;;;;5058884;28;20501;-81
2021/08/21 10:39:17;;;;;;;4.70;4.30;;;21.10;99.90;;;;;;5060212;28;20427;-80
2021/08/21 10:41:49;;;;;;;6.53;5.70;;;21.00;99.90;;;;;;5061412;28;20441;-80
2021/08/21 10:44:41;;;;;;;6.20;5.60;;;21.00;99.90;;;;;;5060966;28;21043;-80
2021/08/21 10:47:10;;;;;;;8.47;6.43;;;20.90;99.90;;;;;;5062584;28;20844;-79
2021/08/21 10:49:44;;;;;;;6.97;6.23;;;20.80;99.90;;;;;;5061189;28;20442;-80
2021/08/21 10:52:46;;;;;;;5.43;4.97;;;20.80;99.90;;;;;;5065844;28;20488;-80
2021/08/21 10:55:15;;;;;;;5.57;5.07;;;20.80;99.90;;;;;;5064038;28;20484;-80
2021/08/21 10:58:05;;;;;;;7.83;6.00;;;20.90;99.90;;;;;;5064179;28;20452;-80
2021/08/21 11:00:43;;;;;;;6.80;4.63;;;20.90;99.90;;;;;;5064166;28;20473;-79
2021/08/21 11:03:13;;;;;;;6.97;5.67;;;21.00;99.90;;;;;;5065917;28;20446;-79
2021/08/21 11:05:55;;;;;;;6.37;5.77;;;21.00;99.90;;;;;;5063910;28;20462;-80
2021/08/21 11:08:22;;;;;;;5.83;4.70;;;21.20;99.90;;;;;;5062594;28;20478;-80
2021/08/21 11:11:09;;;;;;;5.60;5.10;;;21.60;99.90;;;;;;5062074;28;21018;-80
2021/08/21 11:13:55;;;;;;;5.33;4.83;;;21.40;99.90;;;;;;5060624;28;20485;-80
2021/08/21 11:16:23;;;;;;;5.33;4.83;;;21.50;99.90;;;;;;5060462;28;20478;-80
2021/08/21 11:18:53;;;;;;;4.90;4.50;;;21.50;99.90;;;;;;5059699;28;20789;-80
2021/08/21 11:21:33;;;;;;;4.40;4.00;;;21.60;99.90;;;;;;5057428;28;20488;-79
2021/08/21 11:24:00;;;;;;;3.60;3.30;;;21.80;99.90;;;;;;5059352;28;20796;-80
2021/08/21 11:26:26;;;;;;;4.63;4.23;;;21.70;99.90;;;;;;5058963;28;20470;-79
2021/08/21 11:29:07;;;;;;;6.80;4.70;;;21.60;99.90;;;;;;5058886;28;20478;-80
2021/08/21 11:31:52;;;;;;;4.97;4.50;;;21.50;99.90;;;;;;5063547;28;20812;-79
2021/08/21 11:34:21;;;;;;;7.30;5.73;;;21.50;99.90;;;;;;5060347;28;20947;-80
2021/08/21 11:36:49;;;;;;;4.97;4.53;;;21.60;99.90;;;;;;5061880;28;20490;-79
2021/08/21 11:39:16;;;;;;;4.00;3.70;;;21.60;99.90;;;;;;5061350;28;20442;-79
2021/08/21 11:41:54;;;;;;;5.77;5.13;;;21.60;99.90;;;;;;5057631;28;20438;-79
2021/08/21 11:44:29;;;;;;;5.50;5.00;;;21.60;99.90;;;;;;5057002;28;20446;-80
2021/08/21 11:47:10;;;;;;;4.60;4.20;;;21.60;99.90;;;;;;5056348;28;20470;-79
2021/08/21 11:49:38;;;;;;;5.27;4.87;;;21.70;99.90;;;;;;5055339;28;20462;-79
2021/08/21 11:52:06;;;;;;;5.23;4.80;;;21.60;99.90;;;;;;5059909;28;20598;-80
2021/08/21 11:54:33;;;;;;;6.33;3.80;;;21.70;99.90;;;;;;5060643;28;20464;-80
2021/08/21 11:57:00;;;;;;;6.00;4.50;;;21.90;99.90;;;;;;5058296;28;20500;-80
2021/08/21 11:59:27;;;;;;;5.77;5.13;;;21.80;99.90;;;;;;5057309;28;20446;-80
2021/08/21 12:02:00;;;;;;;4.70;4.30;;;21.90;99.90;;;;;;5056915;28;20477;-80
2021/08/21 12:04:28;;;;;;;6.73;5.30;;;21.90;99.90;;;;;;5057018;28;20499;-79
2021/08/21 12:06:56;;;;;;;5.40;4.53;;;21.90;99.90;;;;;;5057427;28;20500;-79
2021/08/21 12:09:23;;;;;;;6.50;5.90;;;21.90;99.90;;;;;;5056972;28;20505;-79
2021/08/21 12:11:52;;;;;;;6.10;5.50;;;21.70;99.90;;;;;;5057450;28;20968;-79
2021/08/21 12:14:21;;;;;;;8.03;7.13;;;21.80;99.90;;;;;;5059812;28;20454;-79
2021/08/21 12:16:49;;;;;;;6.33;5.50;;;21.80;99.90;;;;;;5059353;28;20473;-79
2021/08/21 12:19:22;;;;;;;7.77;6.90;;;21.70;99.90;;;;;;5059605;28;20450;-80
2021/08/21 12:21:49;;;;;;;4.30;3.90;;;21.70;99.90;;;;;;5058057;28;20792;-79
2021/08/21 12:24:17;;;;;;;5.50;4.40;;;21.80;99.90;;;;;;5059674;28;20956;-80
2021/08/21 12:26:45;;;;;;;5.73;5.20;;;21.80;99.90;;;;;;5063137;28;20462;-80
2021/08/21 12:29:24;;;;;;;4.43;4.03;;;21.90;99.90;;;;;;5063450;28;20450;-79
2021/08/21 12:31:51;;;;;;;6.30;4.33;;;21.90;99.90;;;;;;5065042;28;20453;-79
2021/08/21 12:34:19;;;;;;;4.00;3.60;;;22.00;99.90;;;;;;5065441;28;20450;-81
2021/08/21 12:36:47;;;;;;;3.83;3.50;;;22.10;99.90;;;;;;5062598;28;20470;-80
2021/08/21 12:39:19;;;;;;;3.63;3.33;;;22.10;99.90;;;;;;5062435;28;20936;-80
2021/08/21 12:41:53;;;;;;;5.57;4.13;;;22.20;99.90;;;;;;5061495;28;20862;-80
2021/08/21 12:44:22;;;;;;;5.53;3.90;;;22.30;99.90;;;;;;5060867;28;20488;-81
2021/08/21 12:46:51;;;;;;;3.80;3.50;;;22.40;99.90;;;;;;5060642;28;20477;-80
2021/08/21 12:49:18;;;;;;;7.50;4.07;;;22.40;99.90;;;;;;5060544;28;20450;-79
2021/08/21 12:51:44;;;;;;;4.00;3.70;;;22.40;99.90;;;;;;5060635;28;20835;-79
2021/08/21 12:54:13;;;;;;;5.57;3.80;;;22.30;99.90;;;;;;5060484;28;20536;-79
2021/08/21 12:56:40;;;;;;;3.67;3.47;;;22.30;99.90;;;;;;5061124;28;20976;-80
2021/08/21 12:59:13;;;;;;;3.63;3.30;;;22.40;99.90;;;;;;5061113;28;20478;-79
2021/08/21 13:01:40;;;;;;;5.67;3.67;;;22.30;99.90;;;;;;5061085;28;20477;-79
2021/08/21 13:04:08;;;;;;;3.40;3.10;;;22.20;99.90;;;;;;5062240;28;20504;-80
2021/08/21 13:06:38;;;;;;;6.20;4.60;;;22.40;99.90;;;;;;5065844;28;20565;-80
2021/08/21 13:09:06;;;;;;;4.30;3.60;;;22.50;99.90;;;;;;5067347;28;20445;-79
2021/08/21 13:11:33;;;;;;;3.80;3.33;;;22.50;99.90;;;;;;5066962;28;20968;-79
2021/08/21 13:14:00;;;;;;;3.93;3.47;;;22.50;99.90;;;;;;5067160;28;20554;-79
2021/08/21 13:16:28;;;;;;;3.63;3.37;;;22.40;99.90;;;;;;5068035;28;20484;-79
2021/08/21 13:18:55;;;;;;;3.47;3.20;;;22.40;99.90;;;;;;5067587;28;20446;-79
2021/08/21 13:21:22;;;;;;;6.10;5.47;;;22.40;99.90;;;;;;5064433;28;20454;-79
2021/08/21 13:23:49;;;;;;;6.13;4.80;;;22.50;99.90;;;;;;5063984;28;20442;-79
2021/08/21 13:26:15;;;;;;;5.30;4.57;;;22.50;99.90;;;;;;5065170;28;20489;-79
2021/08/21 13:28:42;;;;;;;4.60;3.80;;;22.60;99.90;;;;;;5065904;28;20460;-80
2021/08/21 13:31:08;;;;;;;4.73;3.93;;;22.60;99.90;;;;;;5065305;28;20511;-80
2021/08/21 13:33:36;;;;;;;4.10;3.10;;;22.60;99.90;;;;;;5064266;28;20536;-80
2021/08/21 13:36:04;;;;;;;3.37;2.97;;;22.50;99.90;;;;;;5062532;28;20466;-79
2021/08/21 13:38:30;;;;;;;7.53;4.30;;;22.50;99.90;;;;;;5062732;28;20446;-79
2021/08/21 13:40:57;;;;;;;5.13;4.00;;;22.40;99.90;;;;;;5062439;28;20916;-81
2021/08/21 13:43:24;;;;;;;9.70;5.30;;;22.20;99.90;;;;;;5060797;28;20446;-80
2021/08/21 13:45:50;;;;;;;4.93;4.30;;;22.30;99.90;;;;;;5060554;28;20462;-80
2021/08/21 13:48:21;;;;;;;3.90;3.60;;;22.30;99.90;;;;;;5061652;28;20446;-80